Decoded Metar for LEVX (VIGO in SPAIN) (IATA:VGO) | Meteo·Mobile Aviation Weather
aviador You're here:

LEVX Decoded Metar

VIGO in SPAIN
Report Time2020-02-18 21:00:00
UTC Time2020-02-18 21:10:56
Flight Rules vfr VFR
Wind350° at 06 kt
W.Decomp.*RWY 02: 5.3 kt HW 2.7 kt LCW
Visibility9999 m
Phenomena:N/A
Clouds:N/A
Expected CloudBase > 1,600 ft AGL from Temp-Dew spread
CeilingNone
Temp09°C (ISA -4)
Dew Point05°C (76% RH)
AAT5.7°C
QNH1035 hPa
Density Alt-295 ft
Elevation840 ft
Report Wrong Elevation
Raw Report
METAR LEVX 182100Z 35006KT 320V020 CAVOK 09/05 Q1035 NOSIG=

Extra information for LEVX:More info

Metar Taf Metar & Taf Last 4 Metars F.Rules Stats Wind Profile Meteogram Temp Stats Airport Information Weather charts Add Link Nearby VenuesMetar ALERT Operation Metar Decoded Social comments